This is the latest recevied weather packets stored in our database for station/object KE4LOJ. If no packets are shown the sender has not sent any weather packets the latest 1 day(s).
| Time | Temp. | Humidity | Pressure | Rain* | Wind** | Luminosity | Snow |
|---|---|---|---|---|---|---|---|
| 1778100183 | 33.33° C | 38% | 1015.5 hPa | 0 mm | - | 497 W/m² | - |
| 1778099274 | 33.89° C | 38% | 1015.4 hPa | 0 mm | - | 509 W/m² | - |
| 1778098971 | 33.33° C | 39% | 1015.7 hPa | 0 mm | - | 563 W/m² | - |
| 1778098364 | 33.33° C | 38% | 1015.6 hPa | 0 mm | - | 557 W/m² | - |
| 1778093816 | 33.33° C | 39% | 1016.3 hPa | 0 mm | - | 776 W/m² | - |
| 1778091392 | 31.67° C | 43% | 1016.9 hPa | 0 mm | - | 728 W/m² | - |
| 1778091089 | 31.67° C | 44% | 1016.8 hPa | 0 mm | - | 757 W/m² | - |
| 1778090786 | 31.67° C | 44% | 1016.9 hPa | 0 mm | - | 678 W/m² | - |
| 1778088664 | 31.11° C | 44% | 1017.4 hPa | 0 mm | - | 845 W/m² | - |
| 1778087150 | 31.67° C | 46% | 1017.6 hPa | 0 mm | - | 805 W/m² | - |
| 1778086847 | 31.11° C | 47% | 1017.7 hPa | 0 mm | - | 820 W/m² | - |
| 1778085636 | 31.11° C | 47% | 1017.8 hPa | 0 mm | - | 774 W/m² | - |
| 1778084421 | 30.56° C | 48% | 1018.2 hPa | 0 mm | - | 715 W/m² | - |
| 1778078468 | 27.78° C | 64% | 1018.1 hPa | 0 mm | - | 550 W/m² | - |
| 1778078166 | 28.33° C | 66% | 1018 hPa | 0 mm | - | 529 W/m² | - |
| 1778077260 | 26.67° C | 71% | 1017.9 hPa | 0 mm | - | 515 W/m² | - |
| 1778076957 | 26.67° C | 71% | 1018 hPa | 0 mm | - | 468 W/m² | - |
| 1778073624 | 24.44° C | 81% | 1018.2 hPa | 0 mm | - | 121 W/m² | - |
| 1778073321 | 23.89° C | 82% | 1018 hPa | 0 mm | - | 133 W/m² | - |
| 1778072412 | 23.33° C | 84% | 1017.7 hPa | 0 mm | - | 125 W/m² | - |
| 1778072110 | 23.33° C | 85% | 1017.8 hPa | 0 mm | - | 103 W/m² | - |
| 1778071505 | 22.78° C | 85% | 1017.6 hPa | 0 mm | - | 81 W/m² | - |
| 1778070598 | 22.22° C | 88% | 1017.5 hPa | 0 mm | - | 71 W/m² | - |
| 1778069993 | 21.67° C | 89% | 1017.3 hPa | 0 mm | - | 73 W/m² | - |
| 1778069084 | 20° C | 91% | 1017.5 hPa | 0 mm | - | 70 W/m² | - |
* Rain latest hour (hover to see other rain measurements)
** Current wind speed in m/s (hover to see current wind gust speed)